Time;durP1;ratioP1;P1;durP2;ratioP2;P2;SDS_P1;SDS_P2;PMS_P1;PMS_P2;Temp;Humidity;BMP_temperature;BMP_pressure;BME280_temperature;BME280_humidity;BME280_pressure;Samples;Min_cycle;Max_cycle;Signal;HPM_P1;HPM_P2
2021/04/15 00:02:04;;;;;;;5.00;3.80;;;0.10;99.90;;;;;;4975566;28;20037;-76
2021/04/15 00:04:30;;;;;;;6.97;4.07;;;0.00;99.90;;;;;;4976063;28;20043;-76
2021/04/15 00:06:56;;;;;;;6.50;3.90;;;0.00;99.90;;;;;;4990057;28;20134;-75
2021/04/15 00:09:24;;;;;;;5.95;4.25;;;-0.10;99.90;;;;;;4978109;28;20278;-76
2021/04/15 00:11:51;;;;;;;5.97;4.10;;;0.00;99.90;;;;;;4975768;28;20057;-75
2021/04/15 00:14:20;;;;;;;11.70;5.05;;;0.10;99.90;;;;;;4975973;28;20395;-75
2021/04/15 00:16:48;;;;;;;6.68;3.60;;;0.00;99.90;;;;;;4975444;28;20396;-76
2021/04/15 00:19:18;;;;;;;6.20;3.97;;;0.00;99.90;;;;;;4975872;28;20042;-76
2021/04/15 00:21:45;;;;;;;6.82;4.18;;;0.10;99.90;;;;;;4991139;28;20053;-75
2021/04/15 00:24:12;;;;;;;7.45;4.30;;;0.00;99.90;;;;;;4975361;28;20484;-75
2021/04/15 00:26:38;;;;;;;9.23;4.30;;;0.00;99.90;;;;;;4977715;28;20051;-75
2021/04/15 00:29:05;;;;;;;8.05;4.05;;;0.10;99.90;;;;;;4972049;28;20053;-76
2021/04/15 00:31:32;;;;;;;7.30;4.38;;;0.10;99.90;;;;;;4975564;28;20043;-75
2021/04/15 00:33:58;;;;;;;6.60;4.10;;;0.10;99.90;;;;;;4975469;28;20049;-75
2021/04/15 00:36:26;;;;;;;6.20;4.05;;;0.10;99.90;;;;;;4975505;28;20396;-75
2021/04/15 00:38:53;;;;;;;6.75;4.25;;;0.10;99.90;;;;;;4975106;28;20022;-75
2021/04/15 00:41:21;;;;;;;8.35;4.25;;;0.10;99.90;;;;;;4981080;28;20494;-75
2021/04/15 00:43:48;;;;;;;7.95;4.72;;;0.00;99.90;;;;;;4991875;28;20043;-76
2021/04/15 00:46:14;;;;;;;8.05;4.15;;;0.00;99.90;;;;;;4982517;28;20023;-75
2021/04/15 00:48:42;;;;;;;7.65;4.25;;;0.10;99.90;;;;;;4982829;28;20039;-75
2021/04/15 00:51:36;;;;;;;7.18;4.07;;;0.20;99.90;;;;;;4988787;28;20492;-75
2021/04/15 00:54:28;;;;;;;7.72;4.00;;;0.10;99.90;;;;;;4983199;28;20046;-75
2021/04/15 00:56:55;;;;;;;7.90;4.22;;;0.20;99.90;;;;;;4981311;28;20042;-75
2021/04/15 00:59:22;;;;;;;7.95;4.00;;;0.20;99.90;;;;;;4975111;28;20487;-75
2021/04/15 01:01:48;;;;;;;7.10;4.35;;;0.10;99.90;;;;;;4979643;28;20030;-77
2021/04/15 01:04:15;;;;;;;6.78;4.20;;;0.20;99.90;;;;;;4992860;28;20038;-76
2021/04/15 01:06:42;;;;;;;6.38;3.88;;;0.20;99.90;;;;;;4975064;28;20035;-75
2021/04/15 01:09:08;;;;;;;7.00;3.70;;;0.20;99.90;;;;;;4974644;28;20046;-75
2021/04/15 01:12:11;;;;;;;7.15;4.03;;;0.20;99.90;;;;;;4974232;28;20042;-75
2021/04/15 01:14:56;;;;;;;5.80;3.97;;;0.20;99.90;;;;;;4974784;28;20094;-75
2021/04/15 01:17:41;;;;;;;9.82;4.68;;;0.20;99.90;;;;;;4981538;28;20033;-75
2021/04/15 01:20:42;;;;;;;7.57;4.55;;;0.20;99.90;;;;;;4987263;28;20045;-75
2021/04/15 01:23:24;;;;;;;9.83;4.63;;;0.20;99.90;;;;;;4956777;28;20496;-76
2021/04/15 01:26:09;;;;;;;6.75;4.63;;;0.20;99.90;;;;;;4974007;28;20058;-75
2021/04/15 01:29:06;;;;;;;8.88;4.03;;;0.30;99.90;;;;;;4974230;28;20046;-75
2021/04/15 01:31:53;;;;;;;7.72;4.07;;;0.30;99.90;;;;;;4991197;28;20030;-76
2021/04/15 01:34:46;;;;;;;9.88;5.47;;;0.30;99.90;;;;;;4973906;28;20051;-75
2021/04/15 01:37:23;;;;;;;10.75;4.43;;;0.30;99.90;;;;;;4955709;28;20046;-76
2021/04/15 01:40:13;;;;;;;7.35;4.75;;;0.30;99.90;;;;;;4972865;28;20507;-75
2021/04/15 01:42:58;;;;;;;8.57;4.65;;;0.30;99.90;;;;;;4973077;28;20057;-75
2021/04/15 01:45:25;;;;;;;10.93;4.57;;;0.30;99.90;;;;;;4983507;28;20035;-75
2021/04/15 01:47:53;;;;;;;8.18;4.90;;;0.30;99.90;;;;;;4983435;28;20031;-75
2021/04/15 01:50:22;;;;;;;8.25;5.45;;;0.20;99.90;;;;;;4977390;28;20029;-74
2021/04/15 01:52:51;;;;;;;9.25;4.60;;;0.10;99.90;;;;;;4984818;28;20042;-75
2021/04/15 01:55:25;;;;;;;7.60;4.65;;;0.10;99.90;;;;;;4959305;28;20050;-75
2021/04/15 01:58:17;;;;;;;8.15;4.70;;;0.10;99.90;;;;;;4972551;28;20072;-74
2021/04/15 02:00:47;;;;;;;7.45;4.97;;;0.20;99.90;;;;;;4975672;28;20042;-74
2021/04/15 02:03:22;;;;;;;7.78;5.25;;;0.10;99.90;;;;;;4980054;28;20408;-74
2021/04/15 02:05:54;;;;;;;8.80;3.88;;;0.10;99.90;;;;;;4974045;28;20460;-76
2021/04/15 02:08:27;;;;;;;8.82;4.60;;;0.10;99.90;;;;;;4974022;28;20030;-75
2021/04/15 02:11:02;;;;;;;7.88;4.90;;;0.00;99.90;;;;;;4973472;28;20446;-76
2021/04/15 02:13:32;;;;;;;8.52;4.82;;;0.00;99.90;;;;;;4973421;28;20046;-76
2021/04/15 02:16:03;;;;;;;10.32;4.95;;;-0.10;99.90;;;;;;4972222;28;20047;-75
2021/04/15 02:18:43;;;;;;;10.43;5.63;;;-0.10;99.90;;;;;;4973627;28;20046;-75
2021/04/15 02:21:22;;;;;;;10.38;5.53;;;-0.10;99.90;;;;;;4971467;28;20042;-75
2021/04/15 02:23:53;;;;;;;10.00;5.53;;;-0.10;99.90;;;;;;4973492;28;20050;-75
2021/04/15 02:26:26;;;;;;;8.50;5.18;;;-0.20;99.90;;;;;;4973599;28;20054;-74
2021/04/15 02:28:58;;;;;;;9.15;6.65;;;-0.20;99.90;;;;;;4973016;28;20046;-74
2021/04/15 02:31:30;;;;;;;11.45;5.53;;;-0.20;99.90;;;;;;4973715;28;20034;-75
2021/04/15 02:34:17;;;;;;;13.35;5.72;;;-0.30;99.90;;;;;;4973243;28;20034;-75
2021/04/15 02:36:57;;;;;;;7.47;5.78;;;-0.30;99.90;;;;;;4988048;28;20042;-75
2021/04/15 02:39:50;;;;;;;7.82;5.38;;;-0.40;99.90;;;;;;4977351;28;20034;-76
2021/04/15 02:42:25;;;;;;;8.25;5.13;;;-0.40;99.90;;;;;;4973535;28;20030;-76
2021/04/15 02:44:57;;;;;;;8.90;6.22;;;-0.50;99.90;;;;;;4984579;28;20515;-75
2021/04/15 02:47:34;;;;;;;9.32;6.53;;;-0.50;99.90;;;;;;4981327;28;20031;-76
2021/04/15 02:50:05;;;;;;;12.15;6.30;;;-0.50;99.90;;;;;;4972917;28;20037;-74
2021/04/15 02:52:33;;;;;;;;;;;-0.40;99.90;;;;;;4994507;28;20030;-76
2021/04/15 02:55:13;;;;;;;10.82;5.90;;;-0.50;99.90;;;;;;4980468;28;19928;-76
2021/04/15 02:57:46;;;;;;;11.27;6.75;;;-0.50;99.90;;;;;;4978881;28;20046;-76
2021/04/15 03:00:20;;;;;;;9.10;6.40;;;-0.60;99.90;;;;;;4976952;28;20038;-76
2021/04/15 03:03:11;;;;;;;9.77;6.53;;;-0.60;99.90;;;;;;4959537;28;20043;-76
2021/04/15 03:05:42;;;;;;;12.65;6.55;;;-0.70;99.90;;;;;;4966503;28;20050;-76
2021/04/15 03:08:11;;;;;;;11.48;6.95;;;-0.70;99.90;;;;;;4976791;28;20026;-76
2021/04/15 03:10:45;;;;;;;12.75;6.88;;;-0.80;99.90;;;;;;4977178;28;20353;-76
2021/04/15 03:13:16;;;;;;;12.82;7.55;;;-0.70;99.90;;;;;;4973502;28;20254;-76
2021/04/15 03:15:58;;;;;;;12.93;7.53;;;-0.80;99.90;;;;;;4977237;28;20031;-76
2021/04/15 03:18:46;;;;;;;14.50;7.43;;;-0.90;99.90;;;;;;4977042;28;20045;-76
2021/04/15 03:21:26;;;;;;;11.07;6.93;;;-0.90;99.90;;;;;;4988507;28;20372;-76
2021/04/15 03:24:09;;;;;;;12.73;7.47;;;-1.00;99.90;;;;;;4976629;28;20388;-75
2021/04/15 03:26:40;;;;;;;12.88;8.65;;;-1.00;99.90;;;;;;4976651;28;20148;-76
2021/04/15 03:29:18;;;;;;;16.52;9.02;;;-1.00;99.90;;;;;;4990122;28;20046;-75
2021/04/15 03:31:55;;;;;;;13.65;8.13;;;-1.00;99.90;;;;;;4981846;28;20038;-75
2021/04/15 03:34:34;;;;;;;14.00;8.10;;;-1.00;99.90;;;;;;4990902;28;20475;-75
2021/04/15 03:37:01;;;;;;;15.23;8.40;;;-1.10;99.90;;;;;;4977740;28;20049;-76
2021/04/15 03:39:32;;;;;;;16.63;8.98;;;-1.10;99.90;;;;;;4989555;28;20037;-75
2021/04/15 03:42:06;;;;;;;14.93;9.32;;;-1.00;99.90;;;;;;4977412;28;20039;-75
2021/04/15 03:44:37;;;;;;;13.45;8.68;;;-1.10;99.90;;;;;;4988106;28;20408;-75
2021/04/15 03:47:06;;;;;;;16.83;8.45;;;-1.20;99.90;;;;;;4986184;28;20046;-75
2021/04/15 03:49:57;;;;;;;13.35;8.70;;;-1.20;99.90;;;;;;4986028;28;20380;-75
2021/04/15 03:52:33;;;;;;;18.10;8.23;;;-1.30;99.90;;;;;;4976278;28;20038;-75
2021/04/15 03:55:13;;;;;;;14.48;8.30;;;-1.40;99.90;;;;;;4975110;28;20069;-74
2021/04/15 03:57:41;;;;;;;15.93;8.93;;;-1.40;99.90;;;;;;4959150;28;20043;-75
2021/04/15 04:00:16;;;;;;;13.45;9.40;;;-1.40;99.90;;;;;;4972797;28;20423;-74
2021/04/15 04:02:53;;;;;;;14.57;8.93;;;-1.40;99.90;;;;;;4976181;28;20042;-75
2021/04/15 04:05:27;;;;;;;13.82;7.95;;;-1.50;99.90;;;;;;4984099;28;20042;-75
2021/04/15 04:08:00;;;;;;;13.95;8.63;;;-1.50;99.90;;;;;;4975963;28;20365;-75
2021/04/15 04:10:35;;;;;;;14.50;7.90;;;-1.60;99.90;;;;;;4994616;28;20038;-75
2021/04/15 04:13:16;;;;;;;14.27;7.57;;;-1.70;99.90;;;;;;4984278;28;20046;-75
2021/04/15 04:15:55;;;;;;;11.45;8.52;;;-1.70;99.90;;;;;;4982651;28;20035;-75
2021/04/15 04:18:33;;;;;;;15.13;7.53;;;-1.80;99.90;;;;;;4983883;28;20353;-75
2021/04/15 04:21:15;;;;;;;14.48;7.75;;;-1.80;99.90;;;;;;4975651;28;20376;-75
2021/04/15 04:23:43;;;;;;;;;;;-1.80;99.90;;;;;;4977228;28;20058;-75
2021/04/15 04:26:20;;;;;;;13.55;8.13;;;-1.80;99.90;;;;;;4990580;28;19918;-76
2021/04/15 04:29:07;;;;;;;17.23;9.60;;;-1.80;99.90;;;;;;4975744;28;20039;-76
2021/04/15 04:31:40;;;;;;;15.35;9.48;;;-1.90;99.90;;;;;;4975877;28;20372;-75
2021/04/15 04:34:06;;;;;;;16.35;10.07;;;-1.90;99.90;;;;;;4974982;28;20034;-75
2021/04/15 04:36:35;;;;;;;16.17;10.38;;;-1.90;99.90;;;;;;4985800;28;20049;-74
2021/04/15 04:39:04;;;;;;;17.05;11.45;;;-1.90;99.90;;;;;;4975065;28;20034;-75
2021/04/15 04:41:56;;;;;;;15.48;10.55;;;-1.90;99.90;;;;;;4975337;28;20046;-75
2021/04/15 04:44:36;;;;;;;18.98;10.98;;;-1.90;99.90;;;;;;4975337;28;20046;-76
2021/04/15 04:47:34;;;;;;;20.52;12.18;;;-1.80;99.90;;;;;;4987766;28;20058;-76
2021/04/15 04:50:31;;;;;;;21.75;11.27;;;-1.70;99.90;;;;;;4960547;28;20481;-77
2021/04/15 04:53:01;;;;;;;19.08;11.20;;;-1.70;99.90;;;;;;4974275;28;20055;-77
2021/04/15 04:55:36;;;;;;;22.85;11.95;;;-1.70;99.90;;;;;;4975185;28;20468;-77
2021/04/15 04:58:16;;;;;;;23.63;11.05;;;-1.70;99.90;;;;;;4973764;28;20051;-76
2021/04/15 05:00:49;;;;;;;22.92;11.68;;;-1.60;99.90;;;;;;4975313;28;20034;-77
2021/04/15 05:03:24;;;;;;;23.02;13.27;;;-1.50;99.90;;;;;;4974124;28;20046;-77
2021/04/15 05:06:03;;;;;;;23.17;12.70;;;-1.40;99.90;;;;;;4974630;28;20042;-78
2021/04/15 05:08:40;;;;;;;24.73;13.55;;;-1.30;99.90;;;;;;4975332;28;20045;-77
2021/04/15 05:11:06;;;;;;;24.83;14.95;;;-1.10;99.90;;;;;;4990888;28;20030;-77
2021/04/15 05:13:34;;;;;;;25.17;14.07;;;-1.00;99.90;;;;;;4979187;28;20034;-76
2021/04/15 05:16:04;;;;;;;21.20;14.43;;;-0.80;99.90;;;;;;4976528;28;20027;-77
2021/04/15 05:18:30;;;;;;;16.13;11.13;;;-0.20;99.90;;;;;;4971890;28;20055;-77
2021/04/15 05:21:11;;;;;;;14.23;9.88;;;0.50;99.90;;;;;;4971819;28;20062;-76
2021/04/15 05:23:46;;;;;;;12.38;7.82;;;1.10;99.90;;;;;;4974633;28;20034;-77
2021/04/15 05:26:21;;;;;;;12.55;7.57;;;1.60;99.90;;;;;;4974922;28;20066;-77
2021/04/15 05:28:49;;;;;;;9.82;6.45;;;2.20;99.90;;;;;;4985550;28;20042;-77
2021/04/15 05:31:20;;;;;;;7.05;5.57;;;2.60;99.90;;;;;;4980557;28;20051;-77
2021/04/15 05:33:46;;;;;;;10.57;6.80;;;2.90;99.90;;;;;;4984206;28;20041;-76
2021/04/15 05:36:35;;;;;;;9.75;6.55;;;3.30;99.90;;;;;;4978021;28;20039;-77
2021/04/15 05:39:07;;;;;;;8.20;6.03;;;3.20;98.90;;;;;;4990469;28;20030;-76
2021/04/15 05:41:45;;;;;;;13.23;7.07;;;3.30;99.00;;;;;;4942290;28;20042;-74
2021/04/15 05:44:20;;;;;;;7.50;5.30;;;3.50;98.10;;;;;;4991032;28;20482;-75
2021/04/15 05:46:50;;;;;;;8.57;5.88;;;4.00;96.60;;;;;;4974661;28;20042;-75
2021/04/15 05:49:32;;;;;;;8.68;6.25;;;4.50;94.30;;;;;;4973557;28;20046;-74
2021/04/15 05:52:06;;;;;;;9.30;5.88;;;4.70;92.40;;;;;;4973893;28;20042;-74
2021/04/15 05:54:34;;;;;;;7.93;5.80;;;5.10;90.30;;;;;;4973988;28;20667;-75
2021/04/15 05:57:13;;;;;;;9.02;5.90;;;5.10;90.30;;;;;;4973728;28;20353;-75
2021/04/15 06:00:05;;;;;;;7.25;6.25;;;5.10;90.10;;;;;;4974343;28;20043;-75
2021/04/15 06:02:52;;;;;;;8.52;5.75;;;4.40;90.70;;;;;;4980142;28;20523;-74
2021/04/15 06:05:35;;;;;;;6.85;5.50;;;4.50;91.70;;;;;;4983300;28;20042;-74
2021/04/15 06:08:09;;;;;;;7.38;5.10;;;4.80;90.70;;;;;;4956320;28;20042;-79
2021/04/15 06:10:39;;;;;;;6.85;5.95;;;4.50;90.90;;;;;;4955444;28;20404;-78
2021/04/15 06:13:24;;;;;;;7.25;5.80;;;4.30;90.90;;;;;;4974155;28;20038;-77
2021/04/15 06:15:53;;;;;;;7.90;6.03;;;4.40;90.90;;;;;;4973910;28;20034;-77
2021/04/15 06:18:29;;;;;;;7.20;6.00;;;4.40;91.20;;;;;;4955910;28;20046;-77
2021/04/15 06:21:06;;;;;;;9.15;6.43;;;4.60;90.70;;;;;;4973199;28;20034;-78
2021/04/15 06:23:36;;;;;;;9.50;6.75;;;4.70;89.70;;;;;;4987602;28;20041;-77
2021/04/15 06:26:04;;;;;;;8.82;6.07;;;5.00;89.00;;;;;;4978852;28;20485;-77
2021/04/15 06:28:38;;;;;;;6.45;5.82;;;5.30;87.90;;;;;;4973182;28;20141;-78
2021/04/15 06:31:48;;;;;;;6.65;5.70;;;4.90;88.10;;;;;;4957373;28;20035;-78
2021/04/15 06:34:15;;;;;;;7.05;6.35;;;4.90;89.20;;;;;;4961284;28;20053;-78
2021/04/15 06:37:14;;;;;;;10.25;6.18;;;5.20;87.30;;;;;;4973876;28;20042;-77
2021/04/15 06:39:53;;;;;;;6.95;6.00;;;5.40;86.80;;;;;;4973762;28;20035;-78
2021/04/15 06:43:01;;;;;;;6.40;5.57;;;6.10;83.30;;;;;;4957130;28;20054;-78
2021/04/15 06:46:02;;;;;;;7.53;5.82;;;7.50;78.80;;;;;;4973320;28;20043;-77
2021/04/15 06:48:43;;;;;;;8.60;5.88;;;6.70;78.30;;;;;;4990675;28;20045;-78
2021/04/15 06:51:29;;;;;;;6.78;6.07;;;5.90;81.10;;;;;;4973083;28;20066;-78
2021/04/15 06:54:13;;;;;;;7.55;6.10;;;6.50;81.40;;;;;;4973141;28;20039;-79
2021/04/15 06:57:15;;;;;;;6.38;5.45;;;6.70;79.30;;;;;;4972950;28;20058;-79
2021/04/15 07:00:06;;;;;;;8.20;6.47;;;6.80;77.40;;;;;;4973222;28;20046;-78
2021/04/15 07:02:54;;;;;;;7.88;5.60;;;7.00;77.10;;;;;;4973269;28;20039;-78
2021/04/15 07:05:32;;;;;;;7.60;6.30;;;7.10;75.40;;;;;;4992482;28;20045;-78
2021/04/15 07:08:29;;;;;;;7.72;6.28;;;6.70;76.70;;;;;;4974798;28;20035;-79
2021/04/15 07:11:21;;;;;;;6.45;5.60;;;6.10;78.60;;;;;;4954794;28;20050;-78
2021/04/15 07:14:08;;;;;;;6.97;5.82;;;6.30;78.30;;;;;;4972496;28;20050;-80
2021/04/15 07:16:51;;;;;;;6.93;6.00;;;6.30;77.90;;;;;;4973110;28;20035;-78
2021/04/15 07:19:42;;;;;;;10.35;5.40;;;6.80;75.10;;;;;;4972908;28;20034;-78
2021/04/15 07:22:35;;;;;;;8.77;5.93;;;6.70;75.30;;;;;;4972761;28;20362;-78
2021/04/15 07:25:15;;;;;;;5.80;5.05;;;7.00;74.50;;;;;;4972080;28;20051;-78
2021/04/15 07:28:06;;;;;;;5.93;5.28;;;7.40;74.10;;;;;;4952970;28;20055;-78
2021/04/15 07:30:39;;;;;;;7.45;5.47;;;8.00;71.00;;;;;;4954219;28;20031;-79
2021/04/15 07:33:20;;;;;;;6.78;6.00;;;7.50;71.80;;;;;;4954415;28;20027;-78
2021/04/15 07:36:04;;;;;;;5.90;5.35;;;7.40;72.40;;;;;;4954272;28;20042;-77
2021/04/15 07:38:55;;;;;;;6.90;5.35;;;8.10;70.70;;;;;;4952522;28;20039;-78
2021/04/15 07:41:45;;;;;;;7.13;5.50;;;8.20;70.10;;;;;;4957387;28;20034;-79
2021/04/15 07:44:25;;;;;;;7.03;5.70;;;8.20;68.10;;;;;;4956998;28;20397;-77
2021/04/15 07:47:18;;;;;;;7.07;5.10;;;7.80;69.30;;;;;;4956986;28;20035;-76
2021/04/15 07:49:50;;;;;;;5.35;4.70;;;7.80;70.40;;;;;;4957951;28;20047;-77
2021/04/15 07:52:32;;;;;;;6.85;5.45;;;9.30;65.50;;;;;;4965599;28;20026;-78
2021/04/15 07:55:30;;;;;;;5.63;4.97;;;9.20;64.00;;;;;;4962626;28;20384;-79
2021/04/15 07:58:24;;;;;;;7.15;5.80;;;9.40;63.50;;;;;;4956882;28;20043;-78
2021/04/15 08:01:28;;;;;;;5.93;4.80;;;8.60;66.90;;;;;;4957530;28;20035;-79
2021/04/15 08:04:10;;;;;;;7.75;5.30;;;8.60;67.40;;;;;;4957378;28;20043;-79
2021/04/15 08:06:53;;;;;;;9.25;6.35;;;9.90;63.80;;;;;;4957500;28;20043;-78
2021/04/15 08:10:00;;;;;;;8.05;5.50;;;9.50;63.00;;;;;;4956673;28;20031;-79
2021/04/15 08:12:33;;;;;;;5.63;4.00;;;10.40;60.60;;;;;;4939196;29;20039;-78
2021/04/15 08:15:23;;;;;;;7.07;4.80;;;11.00;57.90;;;;;;4956075;28;20046;-79
2021/04/15 08:18:17;;;;;;;4.53;4.10;;;10.00;59.70;;;;;;4957933;28;20461;-78
2021/04/15 08:21:11;;;;;;;8.15;6.70;;;11.00;57.40;;;;;;4964124;28;20042;-78
2021/04/15 08:23:58;;;;;;;8.05;6.95;;;9.40;60.80;;;;;;4954695;28;20039;-78
2021/04/15 08:26:52;;;;;;;6.05;5.35;;;9.80;62.20;;;;;;4966404;28;20065;-79
2021/04/15 08:29:43;;;;;;;6.35;5.25;;;9.70;60.60;;;;;;4974706;28;20050;-79
2021/04/15 08:32:25;;;;;;;5.32;4.80;;;9.70;62.40;;;;;;4974964;28;20046;-80
2021/04/15 08:35:11;;;;;;;5.28;4.45;;;11.00;57.30;;;;;;4989339;28;20042;-78
2021/04/15 08:37:54;;;;;;;5.93;4.50;;;9.00;59.60;;;;;;4962018;28;20031;-79
2021/04/15 08:40:39;;;;;;;7.55;4.57;;;10.10;57.10;;;;;;4974939;28;20046;-78
2021/04/15 08:43:51;;;;;;;7.35;4.40;;;11.30;54.80;;;;;;4974839;28;20035;-79
2021/04/15 08:46:19;;;;;;;5.20;4.13;;;11.50;54.60;;;;;;4969652;28;20055;-79
2021/04/15 08:49:24;;;;;;;4.93;4.35;;;9.90;57.90;;;;;;4975152;28;20502;-79
2021/04/15 08:51:59;;;;;;;6.18;4.05;;;9.90;58.50;;;;;;4913307;29;20055;-79
2021/04/15 08:55:02;;;;;;;5.85;4.07;;;11.70;52.30;;;;;;4966245;28;20051;-79
2021/04/15 08:57:51;;;;;;;5.60;4.57;;;11.70;53.70;;;;;;4992736;28;20057;-79
2021/04/15 09:00:34;;;;;;;6.82;4.05;;;11.10;54.90;;;;;;4957725;28;20402;-77
2021/04/15 09:03:26;;;;;;;8.88;4.60;;;10.50;55.70;;;;;;4957452;28;20038;-78
2021/04/15 09:06:17;;;;;;;7.07;4.85;;;9.00;58.90;;;;;;4973215;28;20047;-79
2021/04/15 09:09:15;;;;;;;5.60;4.65;;;9.10;57.60;;;;;;4975729;28;20380;-79
2021/04/15 09:11:57;;;;;;;5.97;4.75;;;8.80;58.40;;;;;;4935826;28;20049;-78
2021/04/15 09:15:14;;;;;;;6.00;4.32;;;8.20;58.70;;;;;;4975101;28;20475;-78
2021/04/15 09:17:53;;;;;;;6.93;4.50;;;8.00;59.50;;;;;;4962421;28;20035;-78
2021/04/15 09:20:33;;;;;;;9.65;5.13;;;7.90;60.30;;;;;;4974373;28;20392;-78
2021/04/15 09:23:19;;;;;;;7.18;4.32;;;8.00;60.90;;;;;;4973064;28;20047;-78
2021/04/15 09:26:07;;;;;;;9.32;5.20;;;8.00;61.30;;;;;;4974467;28;20054;-78
2021/04/15 09:28:55;;;;;;;7.90;5.72;;;8.40;59.80;;;;;;4919079;28;20047;-79
2021/04/15 09:31:54;;;;;;;6.90;4.38;;;8.80;59.60;;;;;;4975141;28;20388;-79
2021/04/15 09:34:29;;;;;;;6.03;4.30;;;9.70;57.20;;;;;;4981689;28;20042;-79
2021/04/15 09:37:11;;;;;;;7.80;4.88;;;10.50;55.20;;;;;;4978971;28;20465;-79
2021/04/15 09:39:49;;;;;;;7.40;4.93;;;10.10;56.00;;;;;;4974910;28;20026;-80
2021/04/15 09:42:48;;;;;;;6.85;4.95;;;9.70;56.10;;;;;;4974071;28;20031;-79
2021/04/15 09:45:33;;;;;;;8.13;4.93;;;9.00;57.40;;;;;;4939669;28;20073;-80
2021/04/15 09:48:47;;;;;;;6.15;3.60;;;9.60;57.60;;;;;;4971242;28;20054;-79
2021/04/15 09:51:37;;;;;;;6.45;4.10;;;10.20;53.60;;;;;;4925222;28;20397;-79
2021/04/15 09:54:29;;;;;;;4.67;2.80;;;9.60;56.60;;;;;;4973918;28;20031;-79
2021/04/15 09:57:16;;;;;;;3.67;3.03;;;9.30;52.50;;;;;;4974052;28;20301;-79
2021/04/15 10:00:06;;;;;;;3.88;2.58;;;8.70;52.70;;;;;;4974551;28;20038;-77
2021/04/15 10:03:07;;;;;;;6.25;3.28;;;8.90;53.40;;;;;;4973406;28;20041;-78
2021/04/15 10:06:09;;;;;;;2.92;2.17;;;9.30;52.00;;;;;;4974133;28;20042;-79
2021/04/15 10:08:57;;;;;;;3.72;2.63;;;9.90;51.50;;;;;;4978582;28;20030;-79
2021/04/15 10:11:44;;;;;;;3.80;2.72;;;9.90;51.50;;;;;;4961955;28;20046;-79
2021/04/15 10:14:23;;;;;;;4.10;2.40;;;10.00;51.90;;;;;;4973567;28;20030;-79
2021/04/15 10:16:57;;;;;;;3.67;2.42;;;9.30;49.70;;;;;;4988223;28;20038;-79
2021/04/15 10:19:38;;;;;;;4.15;2.13;;;9.00;51.30;;;;;;4977243;28;20035;-79
2021/04/15 10:22:25;;;;;;;6.03;2.80;;;8.60;52.20;;;;;;4956941;28;20050;-79
2021/04/15 10:24:54;;;;;;;5.53;2.53;;;8.50;53.50;;;;;;4973635;28;20380;-78
2021/04/15 10:27:52;;;;;;;3.97;2.33;;;8.70;53.90;;;;;;4973533;28;20827;-78
2021/04/15 10:30:33;;;;;;;3.97;2.33;;;8.60;54.40;;;;;;4984986;28;20050;-79
2021/04/15 10:33:22;;;;;;;5.70;2.10;;;8.40;54.20;;;;;;4976811;28;20034;-78
2021/04/15 10:36:21;;;;;;;2.53;1.70;;;8.00;55.80;;;;;;4955796;28;20065;-79
2021/04/15 10:38:55;;;;;;;2.92;1.50;;;7.40;56.40;;;;;;4971348;28;20049;-79
2021/04/15 10:41:47;;;;;;;2.70;1.33;;;7.00;59.90;;;;;;4987455;28;20100;-79
2021/04/15 10:44:39;;;;;;;2.13;1.33;;;7.10;59.40;;;;;;4976061;28;20039;-78
2021/04/15 10:47:14;;;;;;;;;;;7.20;55.00;;;;;;4997496;28;20046;-79
2021/04/15 10:50:05;;;;;;;4.55;1.70;;;7.40;55.10;;;;;;4992338;28;19917;-78
2021/04/15 10:52:41;;;;;;;6.07;3.65;;;7.50;54.10;;;;;;4977170;28;20030;-78
2021/04/15 10:55:33;;;;;;;3.70;2.72;;;7.80;56.00;;;;;;4942938;28;20491;-78
2021/04/15 10:58:29;;;;;;;3.67;2.47;;;8.00;54.50;;;;;;4947547;28;20054;-79
2021/04/15 11:00:57;;;;;;;3.60;1.88;;;8.40;54.00;;;;;;4943823;28;20038;-79
2021/04/15 11:03:34;;;;;;;2.40;1.90;;;9.20;54.10;;;;;;4977848;28;20035;-79
2021/04/15 11:06:00;;;;;;;3.85;2.67;;;9.30;52.60;;;;;;4978356;28;20050;-78
2021/04/15 11:08:31;;;;;;;7.65;2.92;;;9.40;49.90;;;;;;4977547;28;20034;-79
2021/04/15 11:11:10;;;;;;;4.03;3.15;;;9.50;49.50;;;;;;4978035;28;20060;-79
2021/04/15 11:13:38;;;;;;;3.78;3.25;;;9.30;49.30;;;;;;4989551;28;20499;-78
2021/04/15 11:16:21;;;;;;;3.67;2.40;;;9.30;49.20;;;;;;4978672;28;20034;-78
2021/04/15 11:18:49;;;;;;;6.53;2.90;;;9.70;49.20;;;;;;4977747;28;20043;-78
2021/04/15 11:21:22;;;;;;;5.63;3.58;;;10.10;48.80;;;;;;4978570;28;20218;-79
2021/04/15 11:23:50;;;;;;;4.10;3.50;;;9.80;49.80;;;;;;4978828;28;20377;-79
2021/04/15 11:26:23;;;;;;;3.95;3.25;;;9.40;49.80;;;;;;4977127;28;20046;-77
2021/04/15 11:28:53;;;;;;;4.35;2.30;;;9.10;50.60;;;;;;4972921;28;20050;-78
2021/04/15 11:31:30;;;;;;;5.00;3.05;;;9.00;48.30;;;;;;4979297;28;20046;-78
2021/04/15 11:34:10;;;;;;;4.25;3.20;;;9.40;46.90;;;;;;4978988;28;20055;-78
2021/04/15 11:36:50;;;;;;;4.28;2.40;;;9.80;47.90;;;;;;4979584;28;20061;-78
2021/04/15 11:39:22;;;;;;;4.90;2.97;;;10.00;47.40;;;;;;4980054;28;20031;-78
2021/04/15 11:42:10;;;;;;;3.97;2.38;;;10.00;46.90;;;;;;4980740;28;20278;-79
2021/04/15 11:44:56;;;;;;;3.70;2.60;;;9.40;45.70;;;;;;4980247;28;20027;-81
2021/04/15 11:47:30;;;;;;;3.45;2.50;;;9.30;46.40;;;;;;4979833;28;20499;-80
2021/04/15 11:50:21;;;;;;;6.82;2.53;;;9.40;47.00;;;;;;4977571;28;20033;-78
2021/04/15 11:52:49;;;;;;;4.03;2.25;;;9.30;46.10;;;;;;4976855;28;20460;-79
2021/04/15 11:55:26;;;;;;;5.25;3.42;;;9.30;48.70;;;;;;4958220;28;20047;-79
2021/04/15 11:58:03;;;;;;;4.93;2.97;;;9.00;50.60;;;;;;4976805;28;20373;-79
2021/04/15 12:00:34;;;;;;;5.75;2.22;;;8.50;52.00;;;;;;4973213;28;20047;-78
2021/04/15 12:03:00;;;;;;;;;;;8.60;52.00;;;;;;4975229;28;20059;-79
2021/04/15 12:05:30;;;;;;;3.38;2.22;;;8.50;52.20;;;;;;4976067;28;20355;-79
2021/04/15 12:08:18;;;;;;;3.63;2.60;;;8.60;51.50;;;;;;4976023;28;20038;-79
2021/04/15 12:10:51;;;;;;;7.78;3.58;;;8.40;50.90;;;;;;4976283;28;20027;-80
2021/04/15 12:13:30;;;;;;;4.45;2.45;;;8.30;51.40;;;;;;4975805;28;20046;-79
2021/04/15 12:15:59;;;;;;;3.20;2.08;;;8.30;51.60;;;;;;4976241;28;20047;-79
2021/04/15 12:18:38;;;;;;;3.60;1.90;;;8.70;51.50;;;;;;4975900;28;20038;-78
2021/04/15 12:21:23;;;;;;;4.30;2.90;;;8.80;49.70;;;;;;4988658;28;20038;-79
2021/04/15 12:23:52;;;;;;;4.45;2.15;;;8.80;49.30;;;;;;4982238;28;20026;-81
2021/04/15 12:26:24;;;;;;;5.35;2.20;;;8.90;49.10;;;;;;4986594;28;20051;-79
2021/04/15 12:29:08;;;;;;;4.00;1.92;;;8.90;49.50;;;;;;4984657;28;20042;-79
2021/04/15 12:31:40;;;;;;;4.82;2.30;;;9.30;48.80;;;;;;4974106;28;20046;-80
2021/04/15 12:34:25;;;;;;;3.33;1.95;;;9.50;47.40;;;;;;4942351;28;20046;-79
2021/04/15 12:37:00;;;;;;;4.47;2.20;;;9.70;47.20;;;;;;4975946;28;20039;-80
2021/04/15 12:39:32;;;;;;;3.05;2.08;;;10.20;46.40;;;;;;4974562;28;20106;-79
2021/04/15 12:41:59;;;;;;;4.20;2.95;;;10.20;44.00;;;;;;4994921;28;20030;-79
2021/04/15 12:44:32;;;;;;;4.70;2.35;;;10.10;44.90;;;;;;4976402;28;20027;-78
2021/04/15 12:47:00;;;;;;;4.68;3.20;;;10.00;45.80;;;;;;4990338;28;20038;-78
2021/04/15 12:49:31;;;;;;;6.18;2.75;;;10.20;45.90;;;;;;4976071;28;20396;-80
2021/04/15 12:51:59;;;;;;;5.68;2.35;;;10.40;45.30;;;;;;4976724;28;20031;-79
2021/04/15 12:54:34;;;;;;;3.97;2.15;;;10.50;46.40;;;;;;4972611;28;20368;-78
2021/04/15 12:57:05;;;;;;;4.55;2.53;;;10.80;45.00;;;;;;4978262;28;20057;-79
2021/04/15 12:59:41;;;;;;;4.07;2.70;;;10.80;44.80;;;;;;4975590;28;20054;-79
2021/04/15 13:02:19;;;;;;;6.65;2.47;;;10.40;44.90;;;;;;4989871;28;20039;-80
2021/04/15 13:04:56;;;;;;;4.70;2.22;;;10.30;44.70;;;;;;4975339;28;20031;-79
2021/04/15 13:07:25;;;;;;;5.32;2.50;;;9.60;45.10;;;;;;4973972;28;20051;-79
2021/04/15 13:10:13;;;;;;;4.30;2.50;;;9.50;45.70;;;;;;4975171;28;20030;-78
2021/04/15 13:12:49;;;;;;;5.20;2.45;;;9.40;45.90;;;;;;4976172;28;20035;-79
2021/04/15 13:15:24;;;;;;;4.32;2.80;;;9.20;46.30;;;;;;4974981;28;20031;-78
2021/04/15 13:18:03;;;;;;;6.55;2.95;;;9.30;47.10;;;;;;4974300;28;20043;-80
2021/04/15 13:20:29;;;;;;;5.07;2.22;;;9.20;47.30;;;;;;4985925;28;20031;-78
2021/04/15 13:23:07;;;;;;;4.45;2.42;;;9.20;48.10;;;;;;4973795;28;20493;-79
2021/04/15 13:25:53;;;;;;;4.60;2.72;;;9.50;46.70;;;;;;4958076;28;20051;-79
2021/04/15 13:28:44;;;;;;;4.13;2.63;;;9.90;45.60;;;;;;4972531;28;20043;-78
2021/04/15 13:31:43;;;;;;;2.90;1.98;;;10.30;45.00;;;;;;4936893;28;20046;-79
2021/04/15 13:34:15;;;;;;;4.20;2.75;;;10.50;44.30;;;;;;4974775;28;20034;-78
2021/04/15 13:36:43;;;;;;;3.50;2.30;;;10.10;44.50;;;;;;4973639;28;20027;-79
2021/04/15 13:39:39;;;;;;;3.40;1.58;;;10.20;45.20;;;;;;4974242;28;20026;-81
2021/04/15 13:42:27;;;;;;;3.30;1.80;;;10.20;44.60;;;;;;4973179;28;20046;-78
2021/04/15 13:45:10;;;;;;;4.97;2.67;;;10.00;45.30;;;;;;4974162;28;20461;-78
2021/04/15 13:47:47;;;;;;;5.45;2.40;;;9.40;49.40;;;;;;4941208;28;20047;-79
2021/04/15 13:50:16;;;;;;;9.57;3.40;;;9.20;51.50;;;;;;4973900;28;20034;-78
2021/04/15 13:52:42;;;;;;;7.10;3.13;;;9.30;52.10;;;;;;4982389;28;20034;-80
2021/04/15 13:55:29;;;;;;;4.88;2.60;;;9.00;52.40;;;;;;4964511;28;20038;-79
2021/04/15 13:57:55;;;;;;;3.58;2.33;;;9.20;52.80;;;;;;4991209;28;20379;-78